Terminal Aerodrome Forecast
Issued by NWS

Home | Current Version | Previous Version | Text Only | Print | Product List | Glossary On
Versions: 1 2 3 4 5 6 7 8 9 10 11 12 13
000
FTUS45 KABQ 192300
TAFSAF
TAF
KSAF 192338Z 2000/2024 23008KT P6SM VCTS BKN050CB BKN100
      TEMPO 2000/2001 VRB15G25KT
     FM200400 14007KT P6SM SCT050 BKN090
     FM201000 03006KT P6SM SCT040 BKN100
     FM201500 15006KT P6SM SCT050 SCT120
     FM201900 14010KT P6SM VCTS BKN060CB BKN130=

USA.gov is the U.S. government's official web portal to all federal, state and local government web resources and services.